sensor_id;sensor_type;location;lat;lon;timestamp;temperature;humidity
573;DHT22;271;51.114;13.780;2022-07-10T00:00:27;14.40;1.00
573;DHT22;271;51.114;13.780;2022-07-10T00:02:56;14.40;1.00
573;DHT22;271;51.114;13.780;2022-07-10T00:05:24;14.40;1.00
573;DHT22;271;51.114;13.780;2022-07-10T00:07:51;14.40;1.00
573;DHT22;271;51.114;13.780;2022-07-10T00:10:19;14.40;1.00
573;DHT22;271;51.114;13.780;2022-07-10T00:12:46;14.30;1.00
573;DHT22;271;51.114;13.780;2022-07-10T00:15:14;14.40;1.00
573;DHT22;271;51.114;13.780;2022-07-10T00:17:41;14.30;1.00
573;DHT22;271;51.114;13.780;2022-07-10T00:20:10;14.30;1.00
573;DHT22;271;51.114;13.780;2022-07-10T00:22:38;14.30;1.00
573;DHT22;271;51.114;13.780;2022-07-10T00:25:06;14.20;1.00
573;DHT22;271;51.114;13.780;2022-07-10T00:27:33;14.20;1.00
573;DHT22;271;51.114;13.780;2022-07-10T00:30:00;14.20;1.00
573;DHT22;271;51.114;13.780;2022-07-10T00:32:28;14.10;1.00
573;DHT22;271;51.114;13.780;2022-07-10T00:34:55;14.10;1.00
573;DHT22;271;51.114;13.780;2022-07-10T00:37:23;14.10;1.00
573;DHT22;271;51.114;13.780;2022-07-10T00:39:50;14.10;1.00
573;DHT22;271;51.114;13.780;2022-07-10T00:42:17;14.10;1.00
573;DHT22;271;51.114;13.780;2022-07-10T00:44:44;14.10;1.00
573;DHT22;271;51.114;13.780;2022-07-10T00:47:11;14.10;1.00
573;DHT22;271;51.114;13.780;2022-07-10T00:49:40;14.00;1.00
573;DHT22;271;51.114;13.780;2022-07-10T00:52:08;14.00;1.00
573;DHT22;271;51.114;13.780;2022-07-10T00:54:40;14.00;1.00
573;DHT22;271;51.114;13.780;2022-07-10T00:57:08;14.10;1.00
573;DHT22;271;51.114;13.780;2022-07-10T00:59:35;14.10;1.00
573;DHT22;271;51.114;13.780;2022-07-10T01:02:03;14.10;1.00
573;DHT22;271;51.114;13.780;2022-07-10T01:04:30;14.20;99.90
573;DHT22;271;51.114;13.780;2022-07-10T01:06:57;14.20;1.00
573;DHT22;271;51.114;13.780;2022-07-10T01:09:24;14.20;1.00
573;DHT22;271;51.114;13.780;2022-07-10T01:11:52;14.20;1.00
573;DHT22;271;51.114;13.780;2022-07-10T01:14:20;14.20;1.00
573;DHT22;271;51.114;13.780;2022-07-10T01:16:47;14.10;1.00
573;DHT22;271;51.114;13.780;2022-07-10T01:19:14;14.10;1.00
573;DHT22;271;51.114;13.780;2022-07-10T01:21:42;14.10;1.00
573;DHT22;271;51.114;13.780;2022-07-10T01:24:10;14.10;99.90
573;DHT22;271;51.114;13.780;2022-07-10T01:26:38;14.10;1.00
573;DHT22;271;51.114;13.780;2022-07-10T01:29:09;14.10;99.90
573;DHT22;271;51.114;13.780;2022-07-10T01:31:37;14.10;1.00
573;DHT22;271;51.114;13.780;2022-07-10T01:34:06;14.10;99.90
573;DHT22;271;51.114;13.780;2022-07-10T01:36:33;14.10;1.00
573;DHT22;271;51.114;13.780;2022-07-10T01:39:01;14.10;1.00
573;DHT22;271;51.114;13.780;2022-07-10T01:41:28;14.10;1.00
573;DHT22;271;51.114;13.780;2022-07-10T01:43:55;14.10;1.00
573;DHT22;271;51.114;13.780;2022-07-10T01:46:22;14.10;1.00
573;DHT22;271;51.114;13.780;2022-07-10T01:48:49;14.10;99.90
573;DHT22;271;51.114;13.780;2022-07-10T01:51:16;14.10;1.00
573;DHT22;271;51.114;13.780;2022-07-10T01:53:43;14.10;99.90
573;DHT22;271;51.114;13.780;2022-07-10T01:56:12;14.10;1.00
573;DHT22;271;51.114;13.780;2022-07-10T01:58:39;14.10;1.00
573;DHT22;271;51.114;13.780;2022-07-10T02:01:08;14.10;1.00
573;DHT22;271;51.114;13.780;2022-07-10T02:03:35;14.10;1.00
573;DHT22;271;51.114;13.780;2022-07-10T02:06:19;14.10;1.00
573;DHT22;271;51.114;13.780;2022-07-10T02:08:46;14.10;99.90
573;DHT22;271;51.114;13.780;2022-07-10T02:11:14;14.10;99.90
573;DHT22;271;51.114;13.780;2022-07-10T02:13:41;14.10;1.00
573;DHT22;271;51.114;13.780;2022-07-10T02:16:08;14.20;1.00
573;DHT22;271;51.114;13.780;2022-07-10T02:18:36;14.10;99.90
573;DHT22;271;51.114;13.780;2022-07-10T02:21:03;14.10;1.00
573;DHT22;271;51.114;13.780;2022-07-10T02:23:30;14.20;99.90
573;DHT22;271;51.114;13.780;2022-07-10T02:25:57;14.20;1.40
573;DHT22;271;51.114;13.780;2022-07-10T02:28:25;14.10;99.90
573;DHT22;271;51.114;13.780;2022-07-10T02:30:52;14.10;99.90
573;DHT22;271;51.114;13.780;2022-07-10T02:33:19;14.10;99.90
573;DHT22;271;51.114;13.780;2022-07-10T02:35:45;14.00;99.90
573;DHT22;271;51.114;13.780;2022-07-10T02:38:12;14.00;99.90
573;DHT22;271;51.114;13.780;2022-07-10T02:40:39;14.10;99.90
573;DHT22;271;51.114;13.780;2022-07-10T02:43:06;14.10;1.00
573;DHT22;271;51.114;13.780;2022-07-10T02:45:34;14.10;99.90
573;DHT22;271;51.114;13.780;2022-07-10T02:48:01;14.10;1.00
573;DHT22;271;51.114;13.780;2022-07-10T02:50:28;14.10;1.00
573;DHT22;271;51.114;13.780;2022-07-10T02:52:55;14.10;1.00
573;DHT22;271;51.114;13.780;2022-07-10T02:55:21;14.10;99.90
573;DHT22;271;51.114;13.780;2022-07-10T02:57:48;14.10;99.90
573;DHT22;271;51.114;13.780;2022-07-10T03:00:15;14.10;1.00
573;DHT22;271;51.114;13.780;2022-07-10T03:02:43;14.10;1.00
573;DHT22;271;51.114;13.780;2022-07-10T03:05:10;14.10;99.90
573;DHT22;271;51.114;13.780;2022-07-10T03:07:37;14.00;99.90
573;DHT22;271;51.114;13.780;2022-07-10T03:10:04;14.10;99.90
573;DHT22;271;51.114;13.780;2022-07-10T03:12:31;14.10;1.00
573;DHT22;271;51.114;13.780;2022-07-10T03:14:58;14.10;1.00
573;DHT22;271;51.114;13.780;2022-07-10T03:17:25;14.10;1.00
573;DHT22;271;51.114;13.780;2022-07-10T03:19:54;14.00;1.00
573;DHT22;271;51.114;13.780;2022-07-10T03:22:21;14.10;1.00
573;DHT22;271;51.114;13.780;2022-07-10T03:24:48;14.00;1.00
573;DHT22;271;51.114;13.780;2022-07-10T03:27:14;14.00;1.00
573;DHT22;271;51.114;13.780;2022-07-10T03:29:41;13.90;1.00
573;DHT22;271;51.114;13.780;2022-07-10T03:32:08;14.00;1.00
573;DHT22;271;51.114;13.780;2022-07-10T03:34:35;14.00;1.00
573;DHT22;271;51.114;13.780;2022-07-10T03:37:04;14.00;99.90
573;DHT22;271;51.114;13.780;2022-07-10T03:39:31;14.00;99.90
573;DHT22;271;51.114;13.780;2022-07-10T03:41:57;14.10;99.90
573;DHT22;271;51.114;13.780;2022-07-10T03:44:24;14.00;1.00
573;DHT22;271;51.114;13.780;2022-07-10T03:46:51;14.10;99.90
573;DHT22;271;51.114;13.780;2022-07-10T03:49:18;14.10;99.90
573;DHT22;271;51.114;13.780;2022-07-10T03:51:45;14.10;99.90
573;DHT22;271;51.114;13.780;2022-07-10T03:54:13;14.20;99.90
573;DHT22;271;51.114;13.780;2022-07-10T03:56:40;14.10;1.00
573;DHT22;271;51.114;13.780;2022-07-10T03:59:24;14.10;99.90
573;DHT22;271;51.114;13.780;2022-07-10T04:01:50;14.20;1.00
573;DHT22;271;51.114;13.780;2022-07-10T04:04:17;14.10;99.90
573;DHT22;271;51.114;13.780;2022-07-10T04:06:44;14.10;1.00
573;DHT22;271;51.114;13.780;2022-07-10T04:09:12;14.10;99.90
573;DHT22;271;51.114;13.780;2022-07-10T04:11:39;14.10;1.40
573;DHT22;271;51.114;13.780;2022-07-10T04:14:06;14.10;1.00
573;DHT22;271;51.114;13.780;2022-07-10T04:16:33;14.10;99.90
573;DHT22;271;51.114;13.780;2022-07-10T04:18:59;14.10;99.90
573;DHT22;271;51.114;13.780;2022-07-10T04:21:26;14.10;1.00
573;DHT22;271;51.114;13.780;2022-07-10T04:23:53;14.10;1.00
573;DHT22;271;51.114;13.780;2022-07-10T04:26:21;14.10;99.90
573;DHT22;271;51.114;13.780;2022-07-10T04:28:48;14.20;99.90
573;DHT22;271;51.114;13.780;2022-07-10T04:31:15;14.20;1.00
573;DHT22;271;51.114;13.780;2022-07-10T04:33:41;14.30;1.00
573;DHT22;271;51.114;13.780;2022-07-10T04:36:08;14.20;1.00
573;DHT22;271;51.114;13.780;2022-07-10T04:38:35;14.30;99.90
573;DHT22;271;51.114;13.780;2022-07-10T04:41:02;14.40;99.90
573;DHT22;271;51.114;13.780;2022-07-10T04:43:31;14.40;99.90
573;DHT22;271;51.114;13.780;2022-07-10T04:45:58;14.30;1.00
573;DHT22;271;51.114;13.780;2022-07-10T04:48:25;14.40;99.90
573;DHT22;271;51.114;13.780;2022-07-10T04:50:52;14.40;99.90
573;DHT22;271;51.114;13.780;2022-07-10T04:53:19;14.40;99.90
573;DHT22;271;51.114;13.780;2022-07-10T04:55:46;14.40;99.90
573;DHT22;271;51.114;13.780;2022-07-10T04:58:12;14.40;1.00
573;DHT22;271;51.114;13.780;2022-07-10T05:00:41;14.40;99.90
573;DHT22;271;51.114;13.780;2022-07-10T05:03:07;14.50;1.00
573;DHT22;271;51.114;13.780;2022-07-10T05:05:34;14.50;99.90
573;DHT22;271;51.114;13.780;2022-07-10T05:08:01;14.60;99.90
573;DHT22;271;51.114;13.780;2022-07-10T05:10:28;14.80;1.00
573;DHT22;271;51.114;13.780;2022-07-10T05:12:55;14.70;1.00
573;DHT22;271;51.114;13.780;2022-07-10T05:15:22;14.70;1.00
573;DHT22;271;51.114;13.780;2022-07-10T05:17:50;14.70;99.90
573;DHT22;271;51.114;13.780;2022-07-10T05:20:17;14.70;1.00
573;DHT22;271;51.114;13.780;2022-07-10T05:22:44;14.70;1.00
573;DHT22;271;51.114;13.780;2022-07-10T05:25:11;14.70;1.00
573;DHT22;271;51.114;13.780;2022-07-10T05:27:38;14.60;1.00
573;DHT22;271;51.114;13.780;2022-07-10T05:30:05;14.60;1.00
573;DHT22;271;51.114;13.780;2022-07-10T05:32:32;14.70;99.90
573;DHT22;271;51.114;13.780;2022-07-10T05:35:00;14.70;99.90
573;DHT22;271;51.114;13.780;2022-07-10T05:37:27;14.80;99.90
573;DHT22;271;51.114;13.780;2022-07-10T05:39:54;14.80;99.90
573;DHT22;271;51.114;13.780;2022-07-10T05:42:21;15.00;99.90
573;DHT22;271;51.114;13.780;2022-07-10T05:44:47;15.00;99.90
573;DHT22;271;51.114;13.780;2022-07-10T05:47:14;15.00;99.90
573;DHT22;271;51.114;13.780;2022-07-10T05:49:41;15.00;99.90
573;DHT22;271;51.114;13.780;2022-07-10T05:52:09;15.00;1.00
573;DHT22;271;51.114;13.780;2022-07-10T05:54:36;15.00;99.90
573;DHT22;271;51.114;13.780;2022-07-10T05:57:03;15.10;99.90
573;DHT22;271;51.114;13.780;2022-07-10T05:59:33;15.20;99.90
573;DHT22;271;51.114;13.780;2022-07-10T06:02:00;15.30;99.90
573;DHT22;271;51.114;13.780;2022-07-10T06:04:27;15.20;99.90
573;DHT22;271;51.114;13.780;2022-07-10T06:06:53;15.20;99.90
573;DHT22;271;51.114;13.780;2022-07-10T06:09:22;15.20;99.90
573;DHT22;271;51.114;13.780;2022-07-10T06:11:49;15.20;99.90
573;DHT22;271;51.114;13.780;2022-07-10T06:14:16;15.20;99.90
573;DHT22;271;51.114;13.780;2022-07-10T06:16:42;15.20;99.90
573;DHT22;271;51.114;13.780;2022-07-10T06:19:09;15.30;99.90
573;DHT22;271;51.114;13.780;2022-07-10T06:21:36;15.40;99.90
573;DHT22;271;51.114;13.780;2022-07-10T06:24:03;15.30;99.90
573;DHT22;271;51.114;13.780;2022-07-10T06:26:32;15.30;99.90
573;DHT22;271;51.114;13.780;2022-07-10T06:28:58;15.30;99.90
573;DHT22;271;51.114;13.780;2022-07-10T06:31:25;15.30;1.00
573;DHT22;271;51.114;13.780;2022-07-10T06:33:52;15.30;1.00
573;DHT22;271;51.114;13.780;2022-07-10T06:36:19;15.40;99.90
573;DHT22;271;51.114;13.780;2022-07-10T06:38:46;15.60;99.90
573;DHT22;271;51.114;13.780;2022-07-10T06:41:12;15.60;99.90
573;DHT22;271;51.114;13.780;2022-07-10T06:43:41;15.50;99.90
573;DHT22;271;51.114;13.780;2022-07-10T06:46:07;15.60;99.90
573;DHT22;271;51.114;13.780;2022-07-10T06:48:34;15.80;99.90
573;DHT22;271;51.114;13.780;2022-07-10T06:51:05;15.90;99.90
573;DHT22;271;51.114;13.780;2022-07-10T06:53:33;16.20;99.90
573;DHT22;271;51.114;13.780;2022-07-10T06:56:00;16.30;99.90
573;DHT22;271;51.114;13.780;2022-07-10T06:58:27;16.30;99.90
573;DHT22;271;51.114;13.780;2022-07-10T07:00:55;16.20;1.00
573;DHT22;271;51.114;13.780;2022-07-10T07:03:22;16.20;1.00
573;DHT22;271;51.114;13.780;2022-07-10T07:05:49;16.20;1.00
573;DHT22;271;51.114;13.780;2022-07-10T07:08:15;16.20;99.90
573;DHT22;271;51.114;13.780;2022-07-10T07:10:42;16.40;99.90
573;DHT22;271;51.114;13.780;2022-07-10T07:13:10;16.50;1.40
573;DHT22;271;51.114;13.780;2022-07-10T07:15:36;16.60;99.90
573;DHT22;271;51.114;13.780;2022-07-10T07:18:08;16.60;99.90
573;DHT22;271;51.114;13.780;2022-07-10T07:20:38;16.50;99.90
573;DHT22;271;51.114;13.780;2022-07-10T07:23:23;16.70;99.90
573;DHT22;271;51.114;13.780;2022-07-10T07:25:50;16.90;99.90
573;DHT22;271;51.114;13.780;2022-07-10T07:28:19;17.00;99.90
573;DHT22;271;51.114;13.780;2022-07-10T07:30:46;17.30;99.90
573;DHT22;271;51.114;13.780;2022-07-10T07:33:15;17.50;99.90
573;DHT22;271;51.114;13.780;2022-07-10T07:35:42;17.70;99.90
573;DHT22;271;51.114;13.780;2022-07-10T07:38:09;18.30;1.00
573;DHT22;271;51.114;13.780;2022-07-10T07:40:36;18.70;1.00
573;DHT22;271;51.114;13.780;2022-07-10T07:43:04;19.20;99.90
573;DHT22;271;51.114;13.780;2022-07-10T07:45:31;19.60;99.90
573;DHT22;271;51.114;13.780;2022-07-10T07:47:58;19.90;99.90
573;DHT22;271;51.114;13.780;2022-07-10T07:50:30;20.10;1.00
573;DHT22;271;51.114;13.780;2022-07-10T07:52:59;20.10;1.00
573;DHT22;271;51.114;13.780;2022-07-10T07:55:26;20.60;1.00
573;DHT22;271;51.114;13.780;2022-07-10T07:57:54;20.90;1.00
573;DHT22;271;51.114;13.780;2022-07-10T08:00:23;21.10;1.00
573;DHT22;271;51.114;13.780;2022-07-10T08:02:51;20.80;1.00
573;DHT22;271;51.114;13.780;2022-07-10T08:05:18;20.50;1.00
573;DHT22;271;51.114;13.780;2022-07-10T08:07:50;20.50;99.90
573;DHT22;271;51.114;13.780;2022-07-10T08:10:18;20.30;99.90
573;DHT22;271;51.114;13.780;2022-07-10T08:12:46;20.60;99.90
573;DHT22;271;51.114;13.780;2022-07-10T08:15:18;20.70;1.00
573;DHT22;271;51.114;13.780;2022-07-10T08:17:47;20.30;99.90
573;DHT22;271;51.114;13.780;2022-07-10T08:20:15;20.20;1.00
573;DHT22;271;51.114;13.780;2022-07-10T08:22:42;19.90;99.90
573;DHT22;271;51.114;13.780;2022-07-10T08:25:11;19.80;99.90
573;DHT22;271;51.114;13.780;2022-07-10T08:27:38;19.50;99.90
573;DHT22;271;51.114;13.780;2022-07-10T08:30:06;19.30;99.90
573;DHT22;271;51.114;13.780;2022-07-10T08:32:34;19.00;99.90
573;DHT22;271;51.114;13.780;2022-07-10T08:35:01;18.80;99.90
573;DHT22;271;51.114;13.780;2022-07-10T08:37:37;18.60;99.90
573;DHT22;271;51.114;13.780;2022-07-10T08:40:22;18.30;99.90
573;DHT22;271;51.114;13.780;2022-07-10T08:42:49;17.90;99.90
573;DHT22;271;51.114;13.780;2022-07-10T08:45:16;17.60;99.90
573;DHT22;271;51.114;13.780;2022-07-10T08:47:43;17.30;99.90
573;DHT22;271;51.114;13.780;2022-07-10T08:50:17;17.10;99.90
573;DHT22;271;51.114;13.780;2022-07-10T08:52:52;17.00;99.90
573;DHT22;271;51.114;13.780;2022-07-10T08:55:24;16.80;99.90
573;DHT22;271;51.114;13.780;2022-07-10T08:57:51;16.60;99.90
573;DHT22;271;51.114;13.780;2022-07-10T09:00:18;16.50;99.90
573;DHT22;271;51.114;13.780;2022-07-10T09:02:45;16.50;99.90
573;DHT22;271;51.114;13.780;2022-07-10T09:05:12;16.50;99.90
573;DHT22;271;51.114;13.780;2022-07-10T09:07:40;16.30;99.90
573;DHT22;271;51.114;13.780;2022-07-10T09:10:10;16.20;99.90
573;DHT22;271;51.114;13.780;2022-07-10T09:12:53;16.10;99.90
573;DHT22;271;51.114;13.780;2022-07-10T09:15:22;16.10;99.90
573;DHT22;271;51.114;13.780;2022-07-10T09:17:50;16.20;99.90
573;DHT22;271;51.114;13.780;2022-07-10T09:20:24;16.20;99.90
573;DHT22;271;51.114;13.780;2022-07-10T09:22:52;16.30;99.90
573;DHT22;271;51.114;13.780;2022-07-10T09:25:18;16.40;99.90
573;DHT22;271;51.114;13.780;2022-07-10T09:27:53;16.50;99.90
573;DHT22;271;51.114;13.780;2022-07-10T09:30:34;16.80;99.90
573;DHT22;271;51.114;13.780;2022-07-10T09:33:17;17.40;99.90
573;DHT22;271;51.114;13.780;2022-07-10T09:36:11;17.80;99.90
573;DHT22;271;51.114;13.780;2022-07-10T09:38:53;17.70;99.90
573;DHT22;271;51.114;13.780;2022-07-10T09:41:22;17.60;99.90
573;DHT22;271;51.114;13.780;2022-07-10T09:43:56;17.40;99.90
573;DHT22;271;51.114;13.780;2022-07-10T09:46:25;17.00;99.90
573;DHT22;271;51.114;13.780;2022-07-10T09:49:05;16.70;99.90
573;DHT22;271;51.114;13.780;2022-07-10T09:51:34;16.60;99.90
573;DHT22;271;51.114;13.780;2022-07-10T09:54:04;16.50;99.90
573;DHT22;271;51.114;13.780;2022-07-10T09:56:40;16.40;99.90
573;DHT22;271;51.114;13.780;2022-07-10T09:59:11;16.40;99.90
573;DHT22;271;51.114;13.780;2022-07-10T10:01:44;16.50;99.90
573;DHT22;271;51.114;13.780;2022-07-10T10:04:12;16.90;99.90
573;DHT22;271;51.114;13.780;2022-07-10T10:06:40;17.50;99.90
573;DHT22;271;51.114;13.780;2022-07-10T10:09:13;17.90;99.90
573;DHT22;271;51.114;13.780;2022-07-10T10:11:44;18.10;99.90
573;DHT22;271;51.114;13.780;2022-07-10T10:14:12;18.10;99.90
573;DHT22;271;51.114;13.780;2022-07-10T10:16:44;18.20;99.90
573;DHT22;271;51.114;13.780;2022-07-10T10:19:11;18.30;99.90
573;DHT22;271;51.114;13.780;2022-07-10T10:22:05;18.40;99.90
573;DHT22;271;51.114;13.780;2022-07-10T10:24:33;18.20;99.90
573;DHT22;271;51.114;13.780;2022-07-10T10:27:01;18.10;99.90
573;DHT22;271;51.114;13.780;2022-07-10T10:29:30;17.90;99.90
573;DHT22;271;51.114;13.780;2022-07-10T10:31:57;17.80;99.90
573;DHT22;271;51.114;13.780;2022-07-10T10:34:41;17.80;99.90
573;DHT22;271;51.114;13.780;2022-07-10T10:37:36;17.60;99.90
573;DHT22;271;51.114;13.780;2022-07-10T10:40:07;17.60;99.90
573;DHT22;271;51.114;13.780;2022-07-10T10:42:38;17.60;99.90
573;DHT22;271;51.114;13.780;2022-07-10T10:45:31;17.70;99.90
573;DHT22;271;51.114;13.780;2022-07-10T10:48:11;17.70;99.90
573;DHT22;271;51.114;13.780;2022-07-10T10:50:40;17.70;99.90
573;DHT22;271;51.114;13.780;2022-07-10T10:53:18;17.80;99.90
573;DHT22;271;51.114;13.780;2022-07-10T10:56:21;17.90;99.90
573;DHT22;271;51.114;13.780;2022-07-10T10:58:49;18.30;99.90
573;DHT22;271;51.114;13.780;2022-07-10T11:01:29;18.10;99.90
573;DHT22;271;51.114;13.780;2022-07-10T11:04:15;18.00;99.90
573;DHT22;271;51.114;13.780;2022-07-10T11:06:45;17.60;99.90
573;DHT22;271;51.114;13.780;2022-07-10T11:09:28;17.30;99.90
573;DHT22;271;51.114;13.780;2022-07-10T11:12:00;17.10;99.90
573;DHT22;271;51.114;13.780;2022-07-10T11:14:27;16.80;99.90
573;DHT22;271;51.114;13.780;2022-07-10T11:16:56;16.80;99.90
573;DHT22;271;51.114;13.780;2022-07-10T11:19:24;16.90;99.90
573;DHT22;271;51.114;13.780;2022-07-10T11:21:59;16.90;99.90
573;DHT22;271;51.114;13.780;2022-07-10T11:24:45;16.90;99.90
573;DHT22;271;51.114;13.780;2022-07-10T11:27:29;16.90;99.90
573;DHT22;271;51.114;13.780;2022-07-10T11:30:00;16.90;99.90
573;DHT22;271;51.114;13.780;2022-07-10T11:32:28;16.90;99.90
573;DHT22;271;51.114;13.780;2022-07-10T11:34:55;17.00;99.90
573;DHT22;271;51.114;13.780;2022-07-10T11:37:22;17.10;99.90
573;DHT22;271;51.114;13.780;2022-07-10T11:40:08;17.30;99.90
573;DHT22;271;51.114;13.780;2022-07-10T11:42:48;17.70;99.90
573;DHT22;271;51.114;13.780;2022-07-10T11:45:37;18.00;99.90
573;DHT22;271;51.114;13.780;2022-07-10T11:48:05;18.30;99.90
573;DHT22;271;51.114;13.780;2022-07-10T11:50:35;18.60;99.90
573;DHT22;271;51.114;13.780;2022-07-10T11:53:02;18.70;99.90
573;DHT22;271;51.114;13.780;2022-07-10T11:55:30;18.80;1.00
573;DHT22;271;51.114;13.780;2022-07-10T11:58:13;18.80;99.90
573;DHT22;271;51.114;13.780;2022-07-10T12:00:39;18.60;99.90
573;DHT22;271;51.114;13.780;2022-07-10T12:03:18;18.30;99.90
573;DHT22;271;51.114;13.780;2022-07-10T12:05:47;18.10;99.90
573;DHT22;271;51.114;13.780;2022-07-10T12:08:14;17.70;99.90
573;DHT22;271;51.114;13.780;2022-07-10T12:10:41;17.60;99.90
573;DHT22;271;51.114;13.780;2022-07-10T12:13:09;17.50;99.90
573;DHT22;271;51.114;13.780;2022-07-10T12:15:38;17.40;99.90
573;DHT22;271;51.114;13.780;2022-07-10T12:18:26;17.30;99.90
573;DHT22;271;51.114;13.780;2022-07-10T12:20:54;17.20;99.90
573;DHT22;271;51.114;13.780;2022-07-10T12:23:21;17.10;99.90
573;DHT22;271;51.114;13.780;2022-07-10T12:25:49;17.00;99.90
573;DHT22;271;51.114;13.780;2022-07-10T12:28:16;17.00;99.90
573;DHT22;271;51.114;13.780;2022-07-10T12:30:45;17.00;99.90
573;DHT22;271;51.114;13.780;2022-07-10T12:33:13;17.20;99.90
573;DHT22;271;51.114;13.780;2022-07-10T12:35:49;17.30;99.90
573;DHT22;271;51.114;13.780;2022-07-10T12:38:17;17.30;99.90
573;DHT22;271;51.114;13.780;2022-07-10T12:40:45;17.30;99.90
573;DHT22;271;51.114;13.780;2022-07-10T12:43:12;17.30;99.90
573;DHT22;271;51.114;13.780;2022-07-10T12:45:39;17.30;99.90
573;DHT22;271;51.114;13.780;2022-07-10T12:48:06;17.30;99.90
573;DHT22;271;51.114;13.780;2022-07-10T12:50:33;17.40;99.90
573;DHT22;271;51.114;13.780;2022-07-10T12:53:11;17.40;99.90
573;DHT22;271;51.114;13.780;2022-07-10T12:55:39;17.60;99.90
573;DHT22;271;51.114;13.780;2022-07-10T12:58:08;17.70;99.90
573;DHT22;271;51.114;13.780;2022-07-10T13:00:44;17.70;99.90
573;DHT22;271;51.114;13.780;2022-07-10T13:03:17;17.90;99.90
573;DHT22;271;51.114;13.780;2022-07-10T13:05:45;17.80;99.90
573;DHT22;271;51.114;13.780;2022-07-10T13:08:15;17.90;99.90
573;DHT22;271;51.114;13.780;2022-07-10T13:10:46;17.90;99.90
573;DHT22;271;51.114;13.780;2022-07-10T13:13:14;18.10;99.90
573;DHT22;271;51.114;13.780;2022-07-10T13:15:42;18.20;99.90
573;DHT22;271;51.114;13.780;2022-07-10T13:18:13;18.30;99.90
573;DHT22;271;51.114;13.780;2022-07-10T13:20:40;18.30;99.90
573;DHT22;271;51.114;13.780;2022-07-10T13:23:06;18.50;99.90
573;DHT22;271;51.114;13.780;2022-07-10T13:25:36;18.60;99.90
573;DHT22;271;51.114;13.780;2022-07-10T13:28:04;18.60;99.90
573;DHT22;271;51.114;13.780;2022-07-10T13:30:30;18.70;99.90
573;DHT22;271;51.114;13.780;2022-07-10T13:32:57;18.80;99.90
573;DHT22;271;51.114;13.780;2022-07-10T13:35:27;18.90;99.90
573;DHT22;271;51.114;13.780;2022-07-10T13:37:54;18.90;99.90
573;DHT22;271;51.114;13.780;2022-07-10T13:40:21;18.80;99.90
573;DHT22;271;51.114;13.780;2022-07-10T13:42:49;18.60;99.90
573;DHT22;271;51.114;13.780;2022-07-10T13:45:16;18.70;99.90
573;DHT22;271;51.114;13.780;2022-07-10T13:47:43;18.70;99.90
573;DHT22;271;51.114;13.780;2022-07-10T13:50:09;18.60;99.90
573;DHT22;271;51.114;13.780;2022-07-10T13:52:36;18.70;99.90
573;DHT22;271;51.114;13.780;2022-07-10T13:55:04;18.80;99.90
573;DHT22;271;51.114;13.780;2022-07-10T13:57:32;18.90;99.90
573;DHT22;271;51.114;13.780;2022-07-10T14:00:00;18.80;99.90
573;DHT22;271;51.114;13.780;2022-07-10T14:02:27;18.70;99.90
573;DHT22;271;51.114;13.780;2022-07-10T14:04:54;18.60;99.90
573;DHT22;271;51.114;13.780;2022-07-10T14:07:20;18.50;99.90
573;DHT22;271;51.114;13.780;2022-07-10T14:09:47;18.40;99.90
573;DHT22;271;51.114;13.780;2022-07-10T14:12:14;18.30;99.90
573;DHT22;271;51.114;13.780;2022-07-10T14:14:41;18.20;99.90
573;DHT22;271;51.114;13.780;2022-07-10T14:17:09;18.20;99.90
573;DHT22;271;51.114;13.780;2022-07-10T14:19:37;18.30;99.90
573;DHT22;271;51.114;13.780;2022-07-10T14:22:06;18.40;99.90
573;DHT22;271;51.114;13.780;2022-07-10T14:24:33;18.60;99.90
573;DHT22;271;51.114;13.780;2022-07-10T14:27:00;18.80;99.90
573;DHT22;271;51.114;13.780;2022-07-10T14:29:27;19.00;1.00
573;DHT22;271;51.114;13.780;2022-07-10T14:31:54;19.00;99.90
573;DHT22;271;51.114;13.780;2022-07-10T14:34:53;19.10;1.00
573;DHT22;271;51.114;13.780;2022-07-10T14:37:31;19.00;99.90
573;DHT22;271;51.114;13.780;2022-07-10T14:39:58;19.00;99.90
573;DHT22;271;51.114;13.780;2022-07-10T14:42:25;19.00;1.00
573;DHT22;271;51.114;13.780;2022-07-10T14:44:51;19.20;99.90
573;DHT22;271;51.114;13.780;2022-07-10T14:47:18;19.20;99.90
573;DHT22;271;51.114;13.780;2022-07-10T14:49:47;19.10;99.90
573;DHT22;271;51.114;13.780;2022-07-10T14:52:13;19.10;99.90
573;DHT22;271;51.114;13.780;2022-07-10T14:54:43;19.00;99.90
573;DHT22;271;51.114;13.780;2022-07-10T14:57:16;19.00;99.90
573;DHT22;271;51.114;13.780;2022-07-10T14:59:43;18.90;99.90
573;DHT22;271;51.114;13.780;2022-07-10T15:02:10;18.80;99.90
573;DHT22;271;51.114;13.780;2022-07-10T15:04:36;18.80;99.90
573;DHT22;271;51.114;13.780;2022-07-10T15:07:05;18.80;99.90
573;DHT22;271;51.114;13.780;2022-07-10T15:09:45;19.00;99.90
573;DHT22;271;51.114;13.780;2022-07-10T15:12:18;18.90;99.90
573;DHT22;271;51.114;13.780;2022-07-10T15:14:45;19.00;99.90
573;DHT22;271;51.114;13.780;2022-07-10T15:17:12;18.90;99.90
573;DHT22;271;51.114;13.780;2022-07-10T15:19:39;18.90;99.90
573;DHT22;271;51.114;13.780;2022-07-10T15:22:07;18.90;99.90
573;DHT22;271;51.114;13.780;2022-07-10T15:24:34;18.90;99.90
573;DHT22;271;51.114;13.780;2022-07-10T15:27:01;18.90;99.90
573;DHT22;271;51.114;13.780;2022-07-10T15:29:28;18.90;99.90
573;DHT22;271;51.114;13.780;2022-07-10T15:31:58;18.80;99.90
573;DHT22;271;51.114;13.780;2022-07-10T15:34:25;18.90;99.90
573;DHT22;271;51.114;13.780;2022-07-10T15:36:52;18.90;99.90
573;DHT22;271;51.114;13.780;2022-07-10T15:39:21;18.90;99.90
573;DHT22;271;51.114;13.780;2022-07-10T15:41:47;18.90;99.90
573;DHT22;271;51.114;13.780;2022-07-10T15:44:28;19.00;99.90
573;DHT22;271;51.114;13.780;2022-07-10T15:46:55;19.10;99.90
573;DHT22;271;51.114;13.780;2022-07-10T15:49:22;19.10;99.90
573;DHT22;271;51.114;13.780;2022-07-10T15:51:49;19.10;99.90
573;DHT22;271;51.114;13.780;2022-07-10T15:54:16;19.20;99.90
573;DHT22;271;51.114;13.780;2022-07-10T15:56:45;19.10;99.90
573;DHT22;271;51.114;13.780;2022-07-10T15:59:12;19.10;99.90
573;DHT22;271;51.114;13.780;2022-07-10T16:01:39;19.10;99.90
573;DHT22;271;51.114;13.780;2022-07-10T16:04:06;19.10;99.90
573;DHT22;271;51.114;13.780;2022-07-10T16:06:32;19.10;99.90
573;DHT22;271;51.114;13.780;2022-07-10T16:08:59;19.10;99.90
573;DHT22;271;51.114;13.780;2022-07-10T16:11:26;19.00;99.90
573;DHT22;271;51.114;13.780;2022-07-10T16:13:55;18.90;99.90
573;DHT22;271;51.114;13.780;2022-07-10T16:16:22;18.80;99.90
573;DHT22;271;51.114;13.780;2022-07-10T16:18:52;18.80;99.90
573;DHT22;271;51.114;13.780;2022-07-10T16:21:19;18.70;99.90
573;DHT22;271;51.114;13.780;2022-07-10T16:23:47;18.70;99.90
573;DHT22;271;51.114;13.780;2022-07-10T16:26:14;18.80;99.90
573;DHT22;271;51.114;13.780;2022-07-10T16:28:41;18.80;99.90
573;DHT22;271;51.114;13.780;2022-07-10T16:31:09;18.70;99.90
573;DHT22;271;51.114;13.780;2022-07-10T16:33:36;18.70;99.90